createdAt,value
2023-01-10T00:00:26.272Z,89.44
2023-01-10T00:01:26.183Z,90.01
2023-01-10T00:02:26.197Z,89.09
2023-01-10T00:03:26.167Z,89.40
2023-01-10T00:04:26.248Z,88.89
2023-01-10T00:05:26.181Z,88.98
2023-01-10T00:06:26.137Z,89.19
2023-01-10T00:07:26.120Z,90.26
2023-01-10T00:08:26.119Z,91.19
2023-01-10T00:09:26.099Z,90.42
2023-01-10T00:10:26.098Z,89.64
2023-01-10T00:11:26.071Z,89.85
2023-01-10T00:12:26.060Z,90.16
2023-01-10T00:13:26.084Z,89.76
2023-01-10T00:14:26.031Z,88.84
2023-01-10T00:15:26.062Z,88.53
2023-01-10T00:16:26.011Z,88.95
2023-01-10T00:17:26.012Z,88.84
2023-01-10T00:18:25.991Z,88.68
2023-01-10T00:19:25.980Z,89.29
2023-01-10T00:20:25.961Z,89.25
2023-01-10T00:21:25.984Z,88.95
2023-01-10T00:22:25.939Z,88.43
2023-01-10T00:23:25.940Z,88.53
2023-01-10T00:24:25.958Z,88.33
2023-01-10T00:25:25.911Z,88.53
2023-01-10T00:26:25.895Z,88.78
2023-01-10T00:27:25.912Z,89.85
2023-01-10T00:28:25.876Z,89.75
2023-01-10T00:29:25.875Z,89.81
2023-01-10T00:30:25.846Z,89.60
2023-01-10T00:31:25.949Z,88.95
2023-01-10T00:32:25.855Z,88.08
2023-01-10T00:33:25.852Z,88.43
2023-01-10T00:34:25.821Z,88.53
2023-01-10T00:35:25.798Z,89.23
2023-01-10T00:36:25.785Z,89.95
2023-01-10T00:37:25.796Z,90.16
2023-01-10T00:38:25.787Z,90.67
2023-01-10T00:39:25.758Z,90.67
2023-01-10T00:40:25.754Z,89.50
2023-01-10T00:41:25.755Z,89.54
2023-01-10T00:42:25.716Z,89.95
2023-01-10T00:43:25.718Z,90.06
2023-01-10T00:44:25.725Z,89.50
2023-01-10T00:45:25.695Z,89.85
2023-01-10T00:46:25.689Z,90.92
2023-01-10T00:47:25.671Z,90.57
2023-01-10T00:48:25.654Z,90.26
2023-01-10T00:49:25.645Z,90.81
2023-01-10T00:50:25.670Z,90.92
2023-01-10T00:51:25.619Z,90.57
2023-01-10T00:52:25.601Z,90.67
2023-01-10T00:53:25.606Z,90.16
2023-01-10T00:54:25.589Z,90.47
2023-01-10T00:55:25.703Z,91.74
2023-01-10T00:56:25.576Z,91.23
2023-01-10T00:57:25.549Z,91.44
2023-01-10T00:58:25.546Z,91.23
2023-01-10T00:59:25.547Z,91.13
2023-01-10T01:00:25.510Z,90.92
2023-01-10T01:01:25.645Z,90.92
2023-01-10T01:02:25.646Z,91.47
2023-01-10T01:03:25.477Z,91.89
2023-01-10T01:04:25.485Z,91.33
2023-01-10T01:05:25.449Z,91.64
2023-01-10T01:06:25.588Z,91.02
2023-01-10T01:07:25.467Z,91.02
2023-01-10T01:08:25.421Z,91.23
2023-01-10T01:09:25.413Z,91.33
2023-01-10T01:10:25.408Z,90.57
2023-01-10T01:11:25.383Z,90.72
2023-01-10T01:12:25.385Z,91.44
2023-01-10T01:13:25.397Z,92.05
2023-01-10T01:14:25.356Z,91.60
2023-01-10T01:15:25.351Z,91.29
2023-01-10T01:16:25.341Z,92.10
2023-01-10T01:17:25.328Z,93.02
2023-01-10T01:18:25.354Z,92.77
2023-01-10T01:19:25.300Z,92.36
2023-01-10T01:20:25.295Z,93.12
2023-01-10T01:21:25.280Z,92.67
2023-01-10T01:22:25.279Z,91.91
2023-01-10T01:23:25.264Z,91.91
2023-01-10T01:24:25.277Z,91.64
2023-01-10T01:25:25.239Z,92.82
2023-01-10T01:26:25.223Z,93.18
2023-01-10T01:27:25.225Z,92.25
2023-01-10T01:28:25.226Z,93.23
2023-01-10T01:29:29.968Z,92.97
2023-01-10T01:30:27.381Z,93.64
2023-01-10T01:31:25.191Z,93.54
2023-01-10T01:32:25.188Z,93.54
2023-01-10T01:33:25.147Z,93.43
2023-01-10T01:34:25.120Z,93.33
2023-01-10T01:35:25.124Z,92.25
2023-01-10T01:36:25.129Z,91.53
2023-01-10T01:37:25.101Z,91.95
2023-01-10T01:38:25.078Z,92.16
2023-01-10T01:39:25.065Z,91.74
2023-01-10T01:40:25.050Z,92.20
2023-01-10T01:41:25.067Z,91.74
2023-01-10T01:42:25.136Z,90.61
2023-01-10T01:43:25.034Z,91.02
2023-01-10T01:44:25.012Z,90.72
2023-01-10T01:45:25.017Z,91.13
2023-01-10T01:46:25.064Z,90.78
2023-01-10T01:47:25.043Z,89.54
2023-01-10T01:48:24.969Z,90.09
2023-01-10T01:49:24.965Z,90.72
2023-01-10T01:50:24.983Z,90.61
2023-01-10T01:51:24.948Z,91.02
2023-01-10T01:52:24.926Z,89.85
2023-01-10T01:53:24.937Z,89.79
2023-01-10T01:54:24.904Z,89.44
2023-01-10T01:55:24.889Z,87.96
2023-01-10T01:56:24.873Z,88.20
2023-01-10T01:57:24.895Z,89.28
2023-01-10T01:58:24.851Z,90.09
2023-01-10T01:59:24.864Z,89.75
2023-01-10T02:00:24.849Z,89.38
2023-01-10T02:01:24.954Z,90.51
2023-01-10T02:02:24.847Z,90.00
2023-01-10T02:03:24.827Z,90.00
2023-01-10T02:04:24.827Z,90.61
2023-01-10T02:05:24.778Z,90.20
2023-01-10T02:06:24.790Z,89.54
2023-01-10T02:07:24.754Z,89.23
2023-01-10T02:08:24.750Z,90.00
2023-01-10T02:09:24.730Z,90.96
2023-01-10T02:10:24.734Z,91.38
2023-01-10T02:11:24.718Z,91.78
2023-01-10T02:12:24.696Z,92.82
2023-01-10T02:13:24.684Z,92.82
2023-01-10T02:14:24.673Z,92.20
2023-01-10T02:15:24.705Z,92.10
2023-01-10T02:16:24.655Z,91.99
2023-01-10T02:17:24.647Z,91.38
2023-01-10T02:18:24.638Z,91.44
2023-01-10T02:19:24.714Z,91.13
2023-01-10T02:20:24.615Z,90.30
2023-01-10T02:21:24.615Z,90.92
2023-01-10T02:22:24.585Z,90.51
2023-01-10T02:23:24.565Z,90.86
2023-01-10T02:24:24.558Z,91.89
2023-01-10T02:25:24.568Z,92.65
2023-01-10T02:26:24.534Z,92.50
2023-01-10T02:27:24.594Z,91.06
2023-01-10T02:28:24.516Z,90.61
2023-01-10T02:29:24.511Z,90.96
2023-01-10T02:30:24.518Z,90.51
2023-01-10T02:31:24.552Z,89.34
2023-01-10T02:32:40.734Z,89.69
2023-01-10T02:33:25.495Z,90.41
2023-01-10T02:34:24.448Z,90.41
2023-01-10T02:35:24.440Z,90.61
2023-01-10T02:36:24.417Z,91.17
2023-01-10T02:37:24.437Z,91.53
2023-01-10T02:38:24.427Z,90.67
2023-01-10T02:39:24.397Z,90.51
2023-01-10T02:40:24.378Z,91.44
2023-01-10T02:41:24.373Z,91.33
2023-01-10T02:42:24.351Z,91.47
2023-01-10T02:43:24.338Z,91.44
2023-01-10T02:44:24.367Z,90.67
2023-01-10T02:45:24.328Z,90.78
2023-01-10T02:46:24.337Z,91.33
2023-01-10T02:47:24.299Z,91.44
2023-01-10T02:48:24.291Z,92.05
2023-01-10T02:49:24.281Z,91.33
2023-01-10T02:50:24.313Z,90.98
2023-01-10T02:51:24.260Z,91.08
2023-01-10T02:52:24.241Z,91.85
2023-01-10T02:53:24.245Z,91.78
2023-01-10T02:54:24.267Z,93.12
2023-01-10T02:55:24.209Z,92.32
2023-01-10T02:56:24.308Z,91.35
2023-01-10T02:57:24.181Z,89.95
2023-01-10T02:58:24.172Z,90.81
2023-01-10T02:59:24.163Z,91.89
2023-01-10T03:00:24.152Z,92.36
2023-01-10T03:01:24.278Z,91.80
2023-01-10T03:02:24.139Z,91.53
2023-01-10T03:03:24.122Z,91.44
2023-01-10T03:04:24.111Z,91.99
2023-01-10T03:05:24.102Z,92.10
2023-01-10T03:06:24.085Z,92.30
2023-01-10T03:07:24.912Z,91.99
2023-01-10T03:08:24.089Z,92.40
2023-01-10T03:09:24.041Z,91.95
2023-01-10T03:10:24.035Z,90.81
2023-01-10T03:11:24.043Z,90.41
2023-01-10T03:12:24.029Z,90.55
2023-01-10T03:13:24.047Z,90.92
2023-01-10T03:14:24.008Z,89.54
2023-01-10T03:15:23.975Z,89.38
2023-01-10T03:16:24.021Z,90.00
2023-01-10T03:17:23.957Z,90.45
2023-01-10T03:18:23.951Z,90.00
2023-01-10T03:19:23.969Z,89.38
2023-01-10T03:20:23.953Z,89.28
2023-01-10T03:21:23.924Z,89.07
2023-01-10T03:22:23.925Z,88.51
2023-01-10T03:23:23.883Z,87.38
2023-01-10T03:24:24.021Z,88.31
2023-01-10T03:25:23.877Z,87.49
2023-01-10T03:26:23.859Z,87.07
2023-01-10T03:27:23.843Z,88.49
2023-01-10T03:28:23.840Z,88.86
2023-01-10T03:29:23.815Z,88.90
2023-01-10T03:30:24.024Z,89.94
2023-01-10T03:31:23.810Z,89.56
2023-01-10T03:32:23.785Z,90.59
2023-01-10T03:33:23.773Z,90.34
2023-01-10T03:34:23.769Z,90.08
2023-01-10T03:35:23.754Z,89.17
2023-01-10T03:36:23.771Z,87.63
2023-01-10T03:37:23.732Z,87.12
2023-01-10T03:38:23.740Z,88.74
2023-01-10T03:39:23.709Z,89.01
2023-01-10T03:40:23.730Z,89.01
2023-01-10T03:41:23.687Z,88.24
2023-01-10T03:42:23.715Z,87.67
2023-01-10T03:43:23.675Z,88.18
2023-01-10T03:44:23.661Z,88.49
2023-01-10T03:45:23.635Z,87.98
2023-01-10T03:46:23.661Z,87.87
2023-01-10T03:47:23.687Z,87.94
2023-01-10T03:48:23.615Z,86.70
2023-01-10T03:49:23.587Z,87.36
2023-01-10T03:50:23.586Z,88.33
2023-01-10T03:51:23.567Z,89.05
2023-01-10T03:52:23.581Z,89.25
2023-01-10T03:53:23.581Z,88.84
2023-01-10T03:54:23.541Z,88.53
2023-01-10T03:55:23.531Z,88.43
2023-01-10T03:56:23.520Z,88.74
2023-01-10T03:57:23.513Z,87.98
2023-01-10T03:58:23.490Z,87.67
2023-01-10T03:59:23.538Z,87.60
2023-01-10T04:00:23.461Z,88.33
2023-01-10T04:01:23.624Z,87.77
2023-01-10T04:02:23.473Z,87.81
2023-01-10T04:03:23.446Z,87.26
2023-01-10T04:04:23.547Z,86.85
2023-01-10T04:05:23.412Z,87.71
2023-01-10T04:06:23.399Z,88.23
2023-01-10T04:07:23.388Z,87.92
2023-01-10T04:08:23.378Z,88.23
2023-01-10T04:09:23.369Z,87.36
2023-01-10T04:10:25.166Z,87.36
2023-01-10T04:11:23.359Z,88.33
2023-01-10T04:12:23.347Z,87.87
2023-01-10T04:13:23.334Z,87.46
2023-01-10T04:14:23.310Z,88.64
2023-01-10T04:15:23.314Z,88.18
2023-01-10T04:16:23.402Z,88.43
2023-01-10T04:17:23.282Z,88.08
2023-01-10T04:18:23.283Z,88.74
2023-01-10T04:19:23.267Z,89.25
2023-01-10T04:20:23.241Z,89.25
2023-01-10T04:21:23.237Z,88.59
2023-01-10T04:22:23.252Z,87.63
2023-01-10T04:23:23.209Z,86.60
2023-01-10T04:24:23.247Z,86.29
2023-01-10T04:25:23.212Z,86.54
2023-01-10T04:26:23.180Z,87.77
2023-01-10T04:27:23.191Z,86.50
2023-01-10T04:28:24.505Z,86.64
2023-01-10T04:29:23.151Z,87.92
2023-01-10T04:30:23.149Z,87.77
2023-01-10T04:31:23.167Z,87.57
2023-01-10T04:32:23.138Z,87.36
2023-01-10T04:33:23.154Z,87.36
2023-01-10T04:34:23.143Z,87.26
2023-01-10T04:35:23.074Z,87.15
2023-01-10T04:36:23.071Z,86.91
2023-01-10T04:37:23.073Z,87.05
2023-01-10T04:38:23.219Z,86.95
2023-01-10T04:39:23.032Z,86.46
2023-01-10T04:40:23.030Z,85.43
2023-01-10T04:41:23.066Z,84.36
2023-01-10T04:42:23.012Z,84.44
2023-01-10T04:43:22.988Z,86.58
2023-01-10T04:44:23.007Z,87.67
2023-01-10T04:45:22.972Z,86.80
2023-01-10T04:46:22.952Z,86.13
2023-01-10T04:47:22.945Z,86.50
2023-01-10T04:48:22.936Z,86.40
2023-01-10T04:49:22.929Z,85.74
2023-01-10T04:50:22.944Z,85.02
2023-01-10T04:51:22.901Z,84.61
2023-01-10T04:52:22.914Z,85.22
2023-01-10T04:53:22.864Z,85.16
2023-01-10T04:54:22.867Z,85.36
2023-01-10T04:55:22.876Z,85.12
2023-01-10T04:56:22.850Z,85.26
2023-01-10T04:57:22.840Z,85.22
2023-01-10T04:58:22.815Z,85.02
2023-01-10T04:59:22.811Z,84.61
2023-01-10T05:00:22.793Z,84.30
2023-01-10T05:01:22.883Z,84.71
2023-01-10T05:02:22.855Z,84.75
2023-01-10T05:03:22.763Z,84.95
2023-01-10T05:04:22.762Z,85.16
2023-01-10T05:05:22.735Z,85.47
2023-01-10T05:06:22.747Z,84.50
2023-01-10T05:07:22.767Z,84.75
2023-01-10T05:08:22.712Z,84.61
2023-01-10T05:09:22.715Z,84.36
2023-01-10T05:10:22.687Z,83.33
2023-01-10T05:11:22.674Z,83.17
2023-01-10T05:12:22.670Z,84.27
2023-01-10T05:13:22.665Z,83.76
2023-01-10T05:14:22.648Z,84.89
2023-01-10T05:15:22.640Z,85.06
2023-01-10T05:16:22.651Z,85.26
2023-01-10T05:17:22.598Z,84.09
2023-01-10T05:18:22.619Z,83.89
2023-01-10T05:19:22.595Z,83.37
2023-01-10T05:20:22.572Z,83.92
2023-01-10T05:21:22.561Z,84.34
2023-01-10T05:22:22.556Z,84.44
2023-01-10T05:23:22.564Z,85.10
2023-01-10T05:24:22.557Z,85.61
2023-01-10T05:25:22.526Z,86.79
2023-01-10T05:26:22.550Z,87.51
2023-01-10T05:27:22.493Z,87.15
2023-01-10T05:28:22.484Z,87.19
2023-01-10T05:29:22.474Z,88.06
2023-01-10T05:30:22.517Z,88.02
2023-01-10T05:31:22.486Z,87.81
2023-01-10T05:32:22.438Z,87.71
2023-01-10T05:33:22.432Z,87.51
2023-01-10T05:34:22.439Z,87.09
2023-01-10T05:35:22.400Z,87.40
2023-01-10T05:36:22.426Z,87.26
2023-01-10T05:37:22.409Z,86.74
2023-01-10T05:38:22.374Z,86.23
2023-01-10T05:39:22.371Z,85.63
2023-01-10T05:40:22.359Z,84.56
2023-01-10T05:41:22.379Z,83.89
2023-01-10T05:42:22.326Z,84.20
2023-01-10T05:43:22.316Z,84.50
2023-01-10T05:44:22.302Z,84.79
2023-01-10T05:45:22.293Z,86.13
2023-01-10T05:46:22.278Z,85.41
2023-01-10T05:47:22.297Z,85.86
2023-01-10T05:48:22.256Z,86.43
2023-01-10T05:49:22.240Z,86.13
2023-01-10T05:50:22.218Z,85.36
2023-01-10T05:51:22.306Z,85.20
2023-01-10T05:52:22.229Z,84.75
2023-01-10T05:53:22.201Z,84.79
2023-01-10T05:54:22.180Z,85.26
2023-01-10T05:55:22.193Z,84.85
2023-01-10T05:56:22.181Z,85.61
2023-01-10T05:57:22.163Z,85.30
2023-01-10T05:58:22.171Z,86.02
2023-01-10T05:59:27.864Z,85.82
2023-01-10T06:00:24.937Z,85.68
2023-01-10T06:01:22.255Z,84.20
2023-01-10T06:02:22.145Z,85.51
2023-01-10T06:03:22.100Z,85.26
2023-01-10T06:04:22.082Z,84.30
2023-01-10T06:05:22.081Z,83.78
2023-01-10T06:06:22.043Z,83.06
2023-01-10T06:07:22.033Z,83.58
2023-01-10T06:08:22.038Z,83.13
2023-01-10T06:09:22.033Z,82.62
2023-01-10T06:10:22.008Z,82.65
2023-01-10T06:11:21.993Z,83.37
2023-01-10T06:12:22.008Z,83.68
2023-01-10T06:13:21.992Z,83.13
2023-01-10T06:14:21.982Z,82.82
2023-01-10T06:15:21.974Z,83.13
2023-01-10T06:16:21.956Z,82.57
2023-01-10T06:17:21.926Z,81.86
2023-01-10T06:18:21.924Z,81.79
2023-01-10T06:19:21.904Z,82.65
2023-01-10T06:20:21.944Z,83.68
2023-01-10T06:21:21.893Z,83.58
2023-01-10T06:22:21.881Z,83.58
2023-01-10T06:23:21.898Z,83.68
2023-01-10T06:24:21.853Z,83.99
2023-01-10T06:25:21.834Z,84.09
2023-01-10T06:26:21.872Z,83.68
2023-01-10T06:27:21.827Z,84.30
2023-01-10T06:28:21.805Z,83.89
2023-01-10T06:29:21.814Z,83.89
2023-01-10T06:30:21.803Z,83.89
2023-01-10T06:31:22.732Z,83.37
2023-01-10T06:32:21.856Z,83.33
2023-01-10T06:33:21.748Z,82.92
2023-01-10T06:34:21.748Z,83.03
2023-01-10T06:35:21.724Z,82.82
2023-01-10T06:36:21.724Z,82.68
2023-01-10T06:37:21.761Z,82.47
2023-01-10T06:38:21.694Z,82.17
2023-01-10T06:39:21.677Z,82.51
2023-01-10T06:40:21.675Z,83.13
2023-01-10T06:41:21.650Z,83.58
2023-01-10T06:42:21.654Z,83.27
2023-01-10T06:43:21.684Z,83.83
2023-01-10T06:44:21.623Z,84.09
2023-01-10T06:45:21.621Z,84.09
2023-01-10T06:46:21.646Z,83.78
2023-01-10T06:47:21.584Z,83.72
2023-01-10T06:48:21.596Z,84.03
2023-01-10T06:49:21.590Z,83.58
2023-01-10T06:50:21.567Z,83.37
2023-01-10T06:51:21.540Z,83.17
2023-01-10T06:52:21.549Z,82.96
2023-01-10T06:53:21.518Z,83.17
2023-01-10T06:54:21.531Z,82.62
2023-01-10T06:55:21.521Z,82.62
2023-01-10T06:56:21.491Z,82.41
2023-01-10T06:57:21.483Z,82.51
2023-01-10T06:58:21.471Z,82.55
2023-01-10T06:59:21.449Z,82.71
2023-01-10T07:00:21.448Z,82.68
2023-01-10T07:01:21.651Z,82.00
2023-01-10T07:02:21.542Z,82.45
2023-01-10T07:03:21.420Z,82.34
2023-01-10T07:04:21.402Z,82.04
2023-01-10T07:05:21.383Z,82.07
2023-01-10T07:06:21.429Z,82.14
2023-01-10T07:07:21.374Z,81.83
2023-01-10T07:08:21.359Z,81.69
2023-01-10T07:09:21.364Z,81.52
2023-01-10T07:10:21.382Z,81.38
2023-01-10T07:11:21.339Z,80.73
2023-01-10T07:12:21.337Z,81.34
2023-01-10T07:13:21.304Z,80.42
2023-01-10T07:14:21.287Z,80.11
2023-01-10T07:15:21.258Z,80.21
2023-01-10T07:16:21.318Z,80.63
2023-01-10T07:17:21.268Z,80.63
2023-01-10T07:18:21.320Z,80.21
2023-01-10T07:19:21.238Z,80.32
2023-01-10T07:20:21.231Z,80.46
2023-01-10T07:21:21.205Z,80.80
2023-01-10T07:22:21.207Z,81.38
2023-01-10T07:23:21.199Z,81.07
2023-01-10T07:24:21.228Z,81.28
2023-01-10T07:25:21.152Z,81.07
2023-01-10T07:26:21.162Z,80.80
2023-01-10T07:27:21.144Z,80.43
2023-01-10T07:28:21.131Z,81.15
2023-01-10T07:29:21.126Z,80.29
2023-01-10T07:30:21.161Z,80.19
2023-01-10T07:31:21.129Z,79.71
2023-01-10T07:32:21.081Z,79.81
2023-01-10T07:33:21.078Z,79.61
2023-01-10T07:34:21.068Z,79.26
2023-01-10T07:35:21.066Z,78.92
2023-01-10T07:36:21.110Z,78.40
2023-01-10T07:37:21.031Z,78.61
2023-01-10T07:38:21.018Z,78.92
2023-01-10T07:39:20.991Z,78.85
2023-01-10T07:40:20.986Z,78.71
2023-01-10T07:41:20.997Z,78.40
2023-01-10T07:42:20.987Z,78.40
2023-01-10T07:43:20.973Z,78.40
2023-01-10T07:44:20.967Z,78.92
2023-01-10T07:45:20.951Z,79.26
2023-01-10T07:46:21.006Z,79.67
2023-01-10T07:47:20.944Z,79.47
2023-01-10T07:48:20.915Z,78.85
2023-01-10T07:49:20.916Z,79.61
2023-01-10T07:50:20.932Z,80.05
2023-01-10T07:51:20.856Z,80.02
2023-01-10T07:52:20.876Z,79.19
2023-01-10T07:53:20.843Z,79.81
2023-01-10T07:54:20.816Z,79.47
2023-01-10T07:55:20.818Z,78.96
2023-01-10T07:56:20.838Z,78.99
2023-01-10T07:57:20.846Z,78.75
2023-01-10T07:58:20.835Z,78.78
2023-01-10T07:59:20.779Z,78.96
2023-01-10T08:00:20.769Z,78.78
2023-01-10T08:01:20.851Z,79.09
2023-01-10T08:02:20.802Z,78.68
2023-01-10T08:03:20.824Z,78.47
2023-01-10T08:04:20.771Z,78.92
2023-01-10T08:05:20.718Z,78.89
2023-01-10T08:06:20.695Z,78.47
2023-01-10T08:07:20.694Z,78.00
2023-01-10T08:08:20.679Z,78.03
2023-01-10T08:09:20.697Z,77.48
2023-01-10T08:10:20.639Z,77.62
2023-01-10T08:11:20.648Z,77.89
2023-01-10T08:12:20.634Z,77.13
2023-01-10T08:13:20.622Z,77.75
2023-01-10T08:14:20.670Z,77.68
2023-01-10T08:15:20.635Z,77.37
2023-01-10T08:16:20.701Z,77.48
2023-01-10T08:17:20.611Z,77.37
2023-01-10T08:18:20.619Z,77.27
2023-01-10T08:19:20.555Z,78.40
2023-01-10T08:20:20.527Z,78.40
2023-01-10T08:21:20.553Z,79.26
2023-01-10T08:22:20.535Z,79.33
2023-01-10T08:23:20.505Z,78.61
2023-01-10T08:24:20.489Z,78.96
2023-01-10T08:25:20.469Z,79.57
2023-01-10T08:26:20.482Z,79.22
2023-01-10T08:27:20.458Z,79.33
2023-01-10T08:28:20.443Z,78.96
2023-01-10T08:29:20.431Z,79.77
2023-01-10T08:30:20.423Z,79.77
2023-01-10T08:31:20.509Z,79.74
2023-01-10T08:32:20.422Z,79.49
2023-01-10T08:33:20.389Z,79.33
2023-01-10T08:34:20.384Z,78.88
2023-01-10T08:35:20.380Z,78.81
2023-01-10T08:36:20.357Z,78.78
2023-01-10T08:37:20.387Z,78.92
2023-01-10T08:38:20.345Z,78.50
2023-01-10T08:39:20.319Z,78.16
2023-01-10T08:40:20.309Z,77.78
2023-01-10T08:41:20.302Z,77.23
2023-01-10T08:42:20.290Z,77.10
2023-01-10T08:43:20.318Z,77.37
2023-01-10T08:44:20.260Z,76.65
2023-01-10T08:45:20.248Z,77.47
2023-01-10T08:46:20.339Z,77.26
2023-01-10T08:47:20.231Z,77.51
2023-01-10T08:48:20.233Z,78.53
2023-01-10T08:49:20.201Z,78.85
2023-01-10T08:50:20.203Z,78.09
2023-01-10T08:51:20.190Z,78.74
2023-01-10T08:52:20.204Z,78.70
2023-01-10T08:53:20.167Z,77.88
2023-01-10T08:54:20.180Z,77.68
2023-01-10T08:55:20.144Z,78.29
2023-01-10T08:56:20.140Z,77.88
2023-01-10T08:57:20.108Z,78.56
2023-01-10T08:58:20.103Z,77.74
2023-01-10T08:59:20.100Z,76.58
2023-01-10T09:00:20.112Z,77.00
2023-01-10T09:01:20.174Z,77.95
2023-01-10T09:02:20.172Z,78.53
2023-01-10T09:03:20.097Z,78.23
2023-01-10T09:04:20.039Z,77.88
2023-01-10T09:05:26.752Z,77.95
2023-01-10T09:06:21.007Z,77.23
2023-01-10T09:07:20.005Z,77.54
2023-01-10T09:08:20.035Z,77.78
2023-01-10T09:09:19.974Z,77.44
2023-01-10T09:10:19.992Z,77.98
2023-01-10T09:11:19.975Z,77.78
2023-01-10T09:12:19.946Z,77.74
2023-01-10T09:13:19.921Z,78.19
2023-01-10T09:14:19.918Z,78.64
2023-01-10T09:15:19.894Z,78.94
2023-01-10T09:16:19.951Z,78.64
2023-01-10T09:17:19.906Z,78.74
2023-01-10T09:18:21.400Z,78.64
2023-01-10T09:19:19.864Z,78.88
2023-01-10T09:20:19.849Z,78.85
2023-01-10T09:21:19.896Z,78.94
2023-01-10T09:22:19.838Z,78.74
2023-01-10T09:23:19.869Z,78.50
2023-01-10T09:24:19.859Z,78.94
2023-01-10T09:25:19.800Z,79.15
2023-01-10T09:26:19.778Z,79.15
2023-01-10T09:27:19.786Z,78.85
2023-01-10T09:28:19.759Z,79.97
2023-01-10T09:29:19.829Z,79.32
2023-01-10T09:30:19.768Z,78.81
2023-01-10T09:31:19.815Z,79.32
2023-01-10T09:32:19.735Z,79.97
2023-01-10T09:33:19.718Z,80.07
2023-01-10T09:34:19.698Z,80.63
2023-01-10T09:35:19.721Z,81.38
2023-01-10T09:36:19.669Z,81.55
2023-01-10T09:37:19.658Z,80.45
2023-01-10T09:38:19.660Z,80.65
2023-01-10T09:39:19.628Z,81.30
2023-01-10T09:40:19.646Z,81.10
2023-01-10T09:41:19.629Z,80.96
2023-01-10T09:42:19.611Z,81.27
2023-01-10T09:43:19.604Z,80.51
2023-01-10T09:44:19.597Z,80.38
2023-01-10T09:45:19.568Z,80.83
2023-01-10T09:46:19.568Z,81.14
2023-01-10T09:47:22.817Z,80.83
2023-01-10T09:48:19.539Z,78.85
2023-01-10T09:49:19.539Z,78.71
2023-01-10T09:50:19.582Z,77.27
2023-01-10T09:51:19.535Z,75.90
2023-01-10T09:52:19.494Z,75.42
2023-01-10T09:53:19.494Z,74.57
2023-01-10T09:54:19.468Z,75.15
2023-01-10T09:55:19.451Z,75.08
2023-01-10T09:56:19.450Z,74.53
2023-01-10T09:57:19.447Z,73.71
2023-01-10T09:58:19.444Z,72.96
2023-01-10T09:59:19.432Z,73.47
2023-01-10T10:00:19.388Z,72.72
2023-01-10T10:01:19.453Z,72.20
2023-01-10T10:02:19.402Z,72.41
2023-01-10T10:03:19.509Z,71.72
2023-01-10T10:04:19.442Z,72.31
2023-01-10T10:05:19.354Z,71.56
2023-01-10T10:06:19.331Z,71.35
2023-01-10T10:07:19.360Z,71.59
2023-01-10T10:08:19.309Z,72.68
2023-01-10T10:09:19.356Z,71.69
2023-01-10T10:10:19.419Z,71.62
2023-01-10T10:11:19.293Z,71.86
2023-01-10T10:12:19.264Z,72.11
2023-01-10T10:13:26.959Z,70.53
2023-01-10T10:14:20.253Z,69.65
2023-01-10T10:15:19.259Z,70.67
2023-01-10T10:16:19.230Z,70.16
2023-01-10T10:17:19.221Z,69.78
2023-01-10T10:18:19.193Z,70.73
2023-01-10T10:19:19.186Z,72.34
2023-01-10T10:20:19.178Z,70.09
2023-01-10T10:21:19.215Z,69.57
2023-01-10T10:22:19.969Z,70.36
2023-01-10T10:23:19.147Z,70.43
2023-01-10T10:24:19.141Z,70.87
2023-01-10T10:25:19.114Z,71.31
2023-01-10T10:26:19.129Z,71.11
2023-01-10T10:27:19.117Z,71.62
2023-01-10T10:28:19.079Z,71.52
2023-01-10T10:29:19.105Z,72.00
2023-01-10T10:30:19.057Z,71.76
2023-01-10T10:31:19.046Z,72.27
2023-01-10T10:32:19.061Z,71.86
2023-01-10T10:33:19.024Z,71.15
2023-01-10T10:34:19.005Z,71.18
2023-01-10T10:35:19.016Z,71.90
2023-01-10T10:36:18.987Z,71.97
2023-01-10T10:37:18.984Z,71.18
2023-01-10T10:38:18.985Z,71.66
2023-01-10T10:39:18.974Z,71.83
2023-01-10T10:40:18.946Z,71.28
2023-01-10T10:41:18.943Z,71.80
2023-01-10T10:42:18.931Z,71.18
2023-01-10T10:43:18.955Z,71.69
2023-01-10T10:44:18.894Z,71.97
2023-01-10T10:45:18.887Z,70.94
2023-01-10T10:46:18.912Z,70.64
2023-01-10T10:47:18.865Z,70.60
2023-01-10T10:48:18.873Z,70.36
2023-01-10T10:49:18.933Z,70.91
2023-01-10T10:50:18.826Z,71.62
2023-01-10T10:51:18.816Z,71.25
2023-01-10T10:52:18.814Z,71.11
2023-01-10T10:53:18.801Z,71.01
2023-01-10T10:54:18.835Z,70.67
2023-01-10T10:55:18.793Z,69.95
2023-01-10T10:56:18.759Z,70.06
2023-01-10T10:57:18.814Z,69.75
2023-01-10T10:58:18.752Z,69.89
2023-01-10T10:59:18.723Z,70.87
2023-01-10T11:00:18.738Z,70.09
2023-01-10T11:01:18.796Z,70.91
2023-01-10T11:02:18.689Z,71.01
2023-01-10T11:03:18.690Z,70.53
2023-01-10T11:04:18.681Z,69.89
2023-01-10T11:05:18.680Z,70.22
2023-01-10T11:06:18.687Z,71.35
2023-01-10T11:07:18.665Z,70.60
2023-01-10T11:08:18.635Z,70.67
2023-01-10T11:09:18.619Z,69.44
2023-01-10T11:10:18.623Z,69.07
2023-01-10T11:11:18.631Z,68.83
2023-01-10T11:12:18.587Z,69.47
2023-01-10T11:13:18.558Z,69.00
2023-01-10T11:14:18.550Z,68.97
2023-01-10T11:15:18.568Z,68.28
2023-01-10T11:16:18.564Z,68.55
2023-01-10T11:17:18.645Z,69.27
2023-01-10T11:18:18.522Z,68.86
2023-01-10T11:19:18.519Z,68.96
2023-01-10T11:20:18.520Z,69.24
2023-01-10T11:21:20.356Z,69.54
2023-01-10T11:22:18.475Z,69.31
2023-01-10T11:23:18.474Z,70.71
2023-01-10T11:24:18.455Z,70.26
2023-01-10T11:25:18.427Z,70.71
2023-01-10T11:26:18.467Z,72.17
2023-01-10T11:27:18.539Z,72.52
2023-01-10T11:28:18.408Z,73.33
2023-01-10T11:29:18.423Z,72.99
2023-01-10T11:30:18.366Z,72.65
2023-01-10T11:31:18.382Z,72.55
2023-01-10T11:32:18.376Z,72.52
2023-01-10T11:33:18.335Z,72.41
2023-01-10T11:34:18.394Z,72.11
2023-01-10T11:35:18.315Z,71.29
2023-01-10T11:36:18.387Z,71.59
2023-01-10T11:37:18.338Z,70.91
2023-01-10T11:38:18.284Z,70.36
2023-01-10T11:39:18.263Z,70.84
2023-01-10T11:40:18.286Z,71.32
2023-01-10T11:41:18.251Z,69.85
2023-01-10T11:42:18.311Z,69.69
2023-01-10T11:43:18.232Z,69.18
2023-01-10T11:44:18.214Z,68.26
2023-01-10T11:45:18.254Z,66.96
2023-01-10T11:46:18.263Z,67.43
2023-01-10T11:47:18.169Z,67.49
2023-01-10T11:48:19.167Z,67.40
2023-01-10T11:49:18.164Z,67.36
2023-01-10T11:50:18.158Z,67.02
2023-01-10T11:51:18.166Z,66.78
2023-01-10T11:52:18.118Z,66.89
2023-01-10T11:53:18.105Z,67.10
2023-01-10T11:54:18.099Z,66.28
2023-01-10T11:55:18.087Z,66.03
2023-01-10T11:56:18.129Z,67.32
2023-01-10T11:57:18.069Z,67.46
2023-01-10T11:58:18.069Z,67.22
2023-01-10T11:59:18.073Z,67.40
2023-01-10T12:00:18.035Z,67.19
2023-01-10T12:01:18.126Z,66.61
2023-01-10T12:02:18.054Z,66.48
2023-01-10T12:03:25.552Z,65.36
2023-01-10T12:04:17.968Z,66.34
2023-01-10T12:05:18.085Z,65.68
2023-01-10T12:06:17.942Z,65.86
2023-01-10T12:07:17.953Z,65.68
2023-01-10T12:08:18.057Z,66.54
2023-01-10T12:09:17.932Z,67.19
2023-01-10T12:10:19.482Z,69.04
2023-01-10T12:11:17.932Z,70.06
2023-01-10T12:12:17.897Z,69.65
2023-01-10T12:13:17.875Z,68.93
2023-01-10T12:14:17.895Z,69.31
2023-01-10T12:15:17.895Z,70.33
2023-01-10T12:16:17.928Z,71.12
2023-01-10T12:17:17.836Z,71.32
2023-01-10T12:18:17.812Z,71.36
2023-01-10T12:19:17.987Z,72.28
2023-01-10T12:20:17.827Z,72.65
2023-01-10T12:21:17.786Z,72.45
2023-01-10T12:22:17.769Z,71.70
2023-01-10T12:23:17.961Z,71.80
2023-01-10T12:24:17.769Z,72.04
2023-01-10T12:25:17.810Z,71.59
2023-01-10T12:26:17.799Z,71.29
2023-01-10T12:27:17.716Z,70.84
2023-01-10T12:28:17.697Z,70.91
2023-01-10T12:29:17.735Z,71.97
2023-01-10T12:30:17.712Z,71.45
2023-01-10T12:31:17.682Z,70.50
2023-01-10T12:32:17.687Z,69.92
2023-01-10T12:33:17.672Z,69.27
2023-01-10T12:34:17.632Z,68.07
2023-01-10T12:35:17.630Z,67.56
2023-01-10T12:36:17.619Z,67.73
2023-01-10T12:37:17.636Z,67.70
2023-01-10T12:38:17.597Z,67.57
2023-01-10T12:39:17.587Z,67.64
2023-01-10T12:40:17.557Z,66.54
2023-01-10T12:41:17.551Z,65.71
2023-01-10T12:42:17.567Z,65.74
2023-01-10T12:43:17.579Z,66.43
2023-01-10T12:44:17.527Z,66.02
2023-01-10T12:45:17.555Z,66.19
2023-01-10T12:46:33.699Z,65.89
2023-01-10T12:47:18.529Z,65.89
2023-01-10T12:48:17.490Z,66.43
2023-01-10T12:49:17.508Z,66.84
2023-01-10T12:50:17.456Z,66.63
2023-01-10T12:51:17.574Z,67.05
2023-01-10T12:52:17.567Z,66.84